Time;durP1;ratioP1;P1;durP2;ratioP2;P2;SDS_P1;SDS_P2;PMS_P1;PMS_P2;Temp;Humidity;BMP_temperature;BMP_pressure;BME280_temperature;BME280_humidity;BME280_pressure;Samples;Min_cycle;Max_cycle;Signal;HPM_P1;HPM_P2
2022/02/02 00:00:16;;;;;;;34.55;16.33;;;;;;;-0.16;76.44;99427.66;4958447;28;20047;-81
2022/02/02 00:05:27;;;;;;;31.73;16.70;;;;;;;-0.20;76.88;99421.63;4957335;28;20406;-80
2022/02/02 00:08:00;;;;;;;40.45;17.77;;;;;;;-0.20;76.81;99415.53;4957387;28;20046;-81
2022/02/02 00:13:03;;;;;;;36.75;18.25;;;;;;;-0.21;77.02;99429.59;4942904;28;20494;-82
2022/02/02 00:15:41;;;;;;;40.17;18.60;;;;;;;-0.22;77.20;99417.38;4928988;28;20038;-81
2022/02/02 00:20:57;;;;;;;32.95;17.30;;;;;;;-0.21;76.95;99424.34;4988519;28;20485;-81
2022/02/02 00:23:29;;;;;;;30.65;15.55;;;;;;;-0.12;77.00;99426.63;4974747;28;21142;-80
2022/02/02 00:26:09;;;;;;;25.17;12.27;;;;;;;-0.11;76.44;99420.47;4974488;28;20038;-80
2022/02/02 00:28:40;;;;;;;23.38;12.25;;;;;;;-0.18;75.75;99430.34;4973789;28;20046;-82
2022/02/02 00:31:11;;;;;;;28.23;14.98;;;;;;;-0.16;76.01;99430.28;4957165;28;20049;-81
2022/02/02 00:33:43;;;;;;;30.73;14.45;;;;;;;-0.17;75.37;99421.53;4974588;28;20068;-80
2022/02/02 00:36:18;;;;;;;32.00;14.15;;;;;;;-0.07;75.41;99425.56;4941922;28;20066;-81
2022/02/02 00:38:44;;;;;;;28.02;13.52;;;;;;;-0.13;74.84;99432.81;4958569;28;20141;-81
2022/02/02 00:41:10;;;;;;;26.80;13.77;;;;;;;-0.04;74.75;99441.22;4973213;28;20137;-81
2022/02/02 00:43:39;;;;;;;22.70;12.13;;;;;;;-0.11;73.78;99438.88;4974269;28;20472;-80
2022/02/02 00:46:04;;;;;;;19.15;11.75;;;;;;;-0.11;73.30;99452.00;4957019;28;20039;-81
2022/02/02 00:48:33;;;;;;;19.15;11.13;;;;;;;-0.09;72.56;99455.44;4973293;28;20133;-81
2022/02/02 00:50:59;;;;;;;19.15;11.57;;;;;;;-0.15;72.29;99461.75;4973523;28;20140;-80
2022/02/02 00:53:25;;;;;;;21.70;11.57;;;;;;;-0.14;71.98;99470.50;4974399;28;20498;-81
2022/02/02 00:55:53;;;;;;;23.25;12.00;;;;;;;-0.03;71.83;99465.72;4941664;28;20050;-80
2022/02/02 00:58:21;;;;;;;19.92;11.10;;;;;;;0.01;71.70;99467.34;4974286;28;20062;-82
2022/02/02 01:00:47;;;;;;;19.92;11.02;;;;;;;-0.01;71.64;99467.38;4957448;28;20047;-81
2022/02/02 01:03:13;;;;;;;16.63;10.80;;;;;;;-0.02;71.24;99464.81;4941195;28;20061;-82
2022/02/02 01:05:39;;;;;;;18.80;10.75;;;;;;;0.05;71.32;99474.19;4956866;28;20042;-81
2022/02/02 01:29:25;;;;;;;13.98;8.65;;;;;;;-0.09;70.49;99471.19;4962409;28;20046;-80
2022/02/02 01:31:53;;;;;;;11.73;7.50;;;;;;;-0.11;70.45;99473.88;4975750;28;20105;-81
2022/02/02 01:34:20;;;;;;;14.45;7.93;;;;;;;-0.10;70.70;99470.34;4960377;28;20101;-81
2022/02/02 01:36:46;;;;;;;12.57;7.80;;;;;;;-0.07;70.78;99469.38;4977251;28;20405;-80
2022/02/02 01:39:14;;;;;;;13.98;8.43;;;;;;;-0.13;70.92;99474.84;4975897;28;20085;-80
2022/02/02 01:41:43;;;;;;;14.15;8.70;;;;;;;-0.12;70.88;99479.16;4975993;28;20417;-81
2022/02/02 01:44:31;;;;;;;16.55;9.05;;;;;;;-0.19;70.88;99475.03;4977154;28;20410;-81
2022/02/02 01:46:58;;;;;;;14.40;8.85;;;;;;;-0.17;70.68;99473.22;4963065;28;20070;-81
2022/02/02 01:54:56;;;;;;;16.60;9.23;;;;;;;-0.07;71.26;99495.66;4962189;28;20066;-81
2022/02/02 01:59:52;;;;;;;15.77;9.38;;;;;;;0.06;71.20;99494.31;4944017;28;20141;-82
2022/02/02 02:02:18;;;;;;;17.08;8.85;;;;;;;-0.06;70.85;99482.44;4928049;28;20046;-80
2022/02/02 02:04:47;;;;;;;19.03;9.03;;;;;;;-0.05;71.22;99493.81;4944697;28;20070;-81
2022/02/02 02:07:13;;;;;;;15.27;9.75;;;;;;;-0.16;70.85;99495.94;4943728;28;20047;-80
2022/02/02 02:09:39;;;;;;;15.18;8.90;;;;;;;-0.14;71.35;99509.91;4959357;28;20042;-81
2022/02/02 02:12:06;;;;;;;10.25;6.85;;;;;;;-0.29;71.95;99499.00;4943754;28;20073;-80
2022/02/02 02:17:11;;;;;;;15.93;8.35;;;;;;;-0.22;71.88;99506.69;4960859;28;20494;-80
2022/02/02 02:19:40;;;;;;;18.85;9.98;;;;;;;-0.39;71.98;99500.22;4959178;28;20367;-82
2022/02/02 02:22:09;;;;;;;18.92;10.50;;;;;;;-0.32;72.09;99506.97;4975728;28;20046;-83
2022/02/02 02:24:38;;;;;;;14.10;8.18;;;;;;;-0.38;71.75;99507.16;4943801;28;20090;-83
2022/02/02 02:27:04;;;;;;;17.87;9.93;;;;;;;-0.48;72.15;99511.03;4978374;28;20062;-81
2022/02/02 02:30:22;;;;;;;16.73;9.50;;;;;;;-0.46;72.07;99521.47;4960556;28;20278;-82
2022/02/02 02:32:41;;;;;;;21.10;11.02;;;;;;;0.10;76.24;99524.81;4965683;28;20054;-82
2022/02/02 02:38:00;;;;;;;16.60;8.98;;;;;;;0.14;71.41;99525.56;4942950;28;20050;-81
2022/02/02 02:56:43;;;;;;;14.95;9.23;;;;;;;-0.75;71.84;99503.13;4961607;28;20050;-83
2022/02/02 02:59:14;;;;;;;14.18;9.13;;;;;;;-0.80;72.08;99506.78;4958209;28;20098;-82
2022/02/02 04:09:36;;;;;;;15.80;9.43;;;;;;;-1.19;71.59;99606.78;4957235;28;19968;-80
2022/02/02 04:12:15;;;;;;;13.00;7.72;;;;;;;-1.10;71.20;99601.25;4957721;28;20540;-82
2022/02/02 04:55:24;;;;;;;26.27;10.30;;;;;;;-0.33;67.80;99652.34;4977852;28;20109;-80
2022/02/02 04:58:18;;;;;;;16.60;10.23;;;;;;;-0.47;67.93;99659.78;4964796;28;20414;-82
2022/02/02 05:06:27;;;;;;;14.25;9.18;;;;;;;-0.27;67.84;99660.03;4963594;28;20046;-83
2022/02/02 05:25:54;;;;;;;14.75;8.73;;;;;;;-0.16;67.38;99656.22;4943774;28;20065;-80
2022/02/02 05:43:50;;;;;;;12.30;8.05;;;;;;;0.31;66.29;99677.50;4976524;28;20043;-83
2022/02/02 05:53:44;;;;;;;13.70;9.02;;;;;;;0.31;65.50;99688.03;4959889;28;20062;-82
2022/02/02 05:56:10;;;;;;;10.48;6.82;;;;;;;0.37;65.10;99700.94;4959139;28;20529;-82
2022/02/02 05:58:37;;;;;;;11.85;7.82;;;;;;;0.32;65.18;99695.84;4959637;28;20074;-82
2022/02/02 06:01:07;;;;;;;15.18;7.68;;;;;;;0.39;65.35;99707.03;4960116;28;20057;-81
2022/02/02 06:03:53;;;;;;;12.75;7.82;;;;;;;0.45;65.50;99698.91;4943641;28;20080;-81
2022/02/02 06:06:23;;;;;;;11.98;7.28;;;;;;;0.28;65.59;99696.88;4959935;28;20050;-80
2022/02/02 06:08:49;;;;;;;25.27;7.80;;;;;;;0.24;65.20;99711.88;4975946;28;20056;-81
2022/02/02 06:11:20;;;;;;;12.98;6.80;;;;;;;0.18;65.41;99701.53;4959808;28;20050;-82
2022/02/02 06:13:53;;;;;;;12.60;7.70;;;;;;;0.24;65.83;99709.25;4976056;28;20043;-84
2022/02/02 06:16:21;;;;;;;13.40;7.65;;;;;;;0.32;65.31;99713.41;4940766;28;20043;-79
2022/02/02 06:18:55;;;;;;;13.38;6.88;;;;;;;0.55;67.08;99718.75;4960095;28;20039;-89
2022/02/02 06:21:32;;;;;;;10.27;6.97;;;;;;;1.17;67.82;99714.91;4913176;29;20051;-87
2022/02/02 06:24:12;;;;;;;9.60;6.72;;;;;;;1.17;64.00;99726.28;4942155;29;20466;-83
2022/02/02 06:26:40;;;;;;;13.70;6.90;;;;;;;1.14;63.48;99718.50;4975425;28;20134;-81
2022/02/02 06:29:10;;;;;;;8.68;6.57;;;;;;;1.20;63.41;99717.38;4975322;28;20053;-83
2022/02/02 06:31:38;;;;;;;10.20;6.18;;;;;;;1.18;62.85;99706.94;4975955;28;20082;-83
2022/02/02 06:34:06;;;;;;;11.98;8.18;;;;;;;1.27;62.94;99715.41;4959477;28;20043;-82
2022/02/02 06:36:35;;;;;;;11.02;6.35;;;;;;;1.13;61.94;99726.41;4976420;28;20442;-82
2022/02/02 06:39:05;;;;;;;10.13;7.13;;;;;;;0.90;63.07;99727.22;4975287;28;20494;-81
2022/02/02 06:41:32;;;;;;;15.63;7.60;;;;;;;0.92;63.11;99735.94;4945102;28;20487;-79
2022/02/02 06:43:58;;;;;;;12.93;7.28;;;;;;;0.81;62.87;99727.56;4961078;28;20477;-77
2022/02/02 06:46:28;;;;;;;10.85;7.57;;;;;;;0.84;63.01;99740.63;4953500;28;20049;-84
2022/02/02 06:48:54;;;;;;;10.73;6.82;;;;;;;1.00;62.91;99746.22;4960221;29;20074;-80
2022/02/02 06:51:47;;;;;;;11.70;6.78;;;;;;;1.00;62.70;99746.22;4940741;29;20055;-80
2022/02/02 06:54:15;;;;;;;11.48;6.90;;;;;;;0.91;62.34;99760.56;4967090;29;20058;-81
2022/02/02 06:56:51;;;;;;;9.73;6.20;;;;;;;0.88;62.75;99758.88;4959163;29;20419;-79
2022/02/02 07:02:27;;;;;;;12.88;7.32;;;;;;;1.05;62.58;99784.59;4950838;29;20058;-84
2022/02/02 07:10:55;;;;;;;10.43;6.05;;;;;;;1.00;62.34;99781.28;4951989;29;20050;-85
2022/02/02 07:13:41;;;;;;;18.13;7.97;;;;;;;1.04;62.44;99809.22;4916704;29;20114;-81
2022/02/02 07:25:22;;;;;;;10.13;7.25;;;;;;;0.86;62.80;99799.31;4936292;29;20059;-90
2022/02/02 07:27:58;;;;;;;11.38;6.88;;;;;;;0.90;63.35;99786.00;4932023;29;20050;-90
2022/02/02 07:30:41;;;;;;;10.60;6.65;;;;;;;0.92;63.10;99802.59;4928654;29;20051;-87
2022/02/02 07:33:13;;;;;;;14.55;8.38;;;;;;;0.96;63.17;99811.25;4931073;29;20134;-87
2022/02/02 07:38:56;;;;;;;14.50;8.25;;;;;;;0.97;63.07;99807.69;4937549;29;20432;-88
2022/02/02 07:41:31;;;;;;;17.17;8.25;;;;;;;0.96;62.67;99817.38;4940343;29;20190;-85
2022/02/02 07:44:05;;;;;;;13.68;8.55;;;;;;;1.09;62.90;99812.59;4943001;29;20050;-87
2022/02/02 07:46:32;;;;;;;17.52;8.90;;;;;;;1.45;62.47;99809.56;4941154;29;20066;-86
2022/02/02 07:48:58;;;;;;;13.70;8.90;;;;;;;1.56;61.74;99825.84;4953033;28;20100;-90
2022/02/02 07:51:27;;;;;;;15.60;8.95;;;;;;;1.57;61.40;99827.56;4943247;29;20059;-90
2022/02/02 07:53:54;;;;;;;13.20;8.77;;;;;;;1.62;61.66;99837.97;4908591;29;20047;-90
2022/02/02 07:56:20;;;;;;;14.82;9.70;;;;;;;1.65;61.29;99828.16;4923093;28;20059;-89
2022/02/02 07:58:59;;;;;;;14.75;8.68;;;;;;;1.64;60.81;99844.88;4939733;29;21022;-88
2022/02/02 08:01:25;;;;;;;17.13;8.80;;;;;;;1.56;61.49;99852.22;4910952;29;20047;-92
2022/02/02 08:03:55;;;;;;;15.80;10.05;;;;;;;1.65;61.12;99843.97;4906705;29;20146;-91
2022/02/02 08:06:25;;;;;;;18.33;11.15;;;;;;;1.59;61.81;99838.06;4939711;28;20043;-88
2022/02/02 08:08:52;;;;;;;21.85;9.90;;;;;;;1.62;61.34;99823.03;4912580;29;20043;-91
2022/02/02 08:11:27;;;;;;;12.82;8.73;;;;;;;1.63;61.45;99811.56;4908392;29;20092;-89
2022/02/02 08:13:57;;;;;;;17.15;10.75;;;;;;;1.63;61.33;99808.06;4890875;29;20534;-89
2022/02/02 08:16:24;;;;;;;14.85;10.32;;;;;;;1.39;61.83;99807.13;4878335;29;20058;-84
2022/02/02 08:18:57;;;;;;;15.93;10.95;;;;;;;1.54;61.42;99811.00;4892080;29;20058;-86
2022/02/02 08:21:26;;;;;;;20.90;11.50;;;;;;;1.47;62.22;99813.03;4874809;29;20095;-84
2022/02/02 08:23:52;;;;;;;17.35;10.90;;;;;;;1.27;62.58;99818.13;4901340;29;20051;-83
2022/02/02 08:26:19;;;;;;;24.55;14.05;;;;;;;1.41;62.28;99810.59;4900973;29;20060;-85
2022/02/02 08:28:45;;;;;;;22.48;13.40;;;;;;;1.36;62.15;99800.22;4883648;29;20044;-87
2022/02/02 08:31:12;;;;;;;21.52;14.35;;;;;;;1.35;62.68;99840.63;4944707;29;20051;-84
2022/02/02 08:33:40;;;;;;;20.52;12.05;;;;;;;1.53;62.34;99822.47;4909736;29;20059;-81
2022/02/02 08:36:10;;;;;;;24.92;15.60;;;;;;;1.64;62.07;99825.59;4917588;29;20066;-84
2022/02/02 08:41:11;;;;;;;26.67;15.75;;;;;;;1.73;61.60;99843.72;4887287;29;20061;-89
2022/02/02 08:43:58;;;;;;;34.63;17.92;;;;;;;1.83;61.47;99836.31;4891887;29;20051;-84
2022/02/02 08:46:30;;;;;;;26.50;14.70;;;;;;;1.82;61.33;99829.34;4923369;29;20146;-81
2022/02/02 08:48:57;;;;;;;20.60;13.57;;;;;;;1.85;61.31;99834.50;4937641;29;20047;-84
2022/02/02 08:51:28;;;;;;;31.30;13.73;;;;;;;1.78;61.18;99840.91;4938543;28;20117;-86
2022/02/02 08:57:09;;;;;;;21.85;14.63;;;;;;;1.92;60.98;99833.38;4956902;28;20055;-84
2022/02/02 08:59:27;;;;;;;24.35;13.15;;;;;;;2.09;60.74;99836.22;4942749;28;20043;-84
2022/02/02 09:01:55;;;;;;;21.85;13.35;;;;;;;1.97;60.59;99849.88;4931325;28;20110;-88
2022/02/02 09:07:08;;;;;;;21.58;13.65;;;;;;;2.12;60.17;99851.94;4933227;28;20042;-93
2022/02/02 09:10:01;;;;;;;21.23;13.93;;;;;;;2.23;60.37;99850.69;4928163;28;20498;-86
2022/02/02 09:34:06;;;;;;;20.77;12.88;;;;;;;2.11;60.99;99888.94;4944833;28;20061;-92
2022/02/02 09:36:35;;;;;;;20.00;12.07;;;;;;;2.30;61.00;99889.09;4997569;28;20042;-86
2022/02/02 09:39:09;;;;;;;22.10;11.75;;;;;;;2.37;60.85;99890.56;4997656;28;20161;-88
2022/02/02 09:41:42;;;;;;;17.10;10.90;;;;;;;2.84;60.82;99906.38;4980289;28;20057;-89
2022/02/02 09:44:09;;;;;;;18.48;10.57;;;;;;;2.99;59.17;99897.84;4965922;28;20046;-88
2022/02/02 09:46:47;;;;;;;19.58;11.18;;;;;;;3.44;58.90;99893.38;4980583;28;20042;-91
2022/02/02 09:49:24;;;;;;;16.05;9.35;;;;;;;3.26;57.37;99893.19;4966780;28;20042;-90
2022/02/02 09:52:12;;;;;;;17.30;9.95;;;;;;;3.08;58.00;99889.53;4986429;28;20050;-89
2022/02/02 09:54:56;;;;;;;18.92;11.75;;;;;;;2.96;58.65;99883.88;4999827;28;20080;-86
2022/02/02 09:57:44;;;;;;;22.63;11.93;;;;;;;2.56;59.85;99885.47;4973570;28;20023;-91
2022/02/02 10:03:02;;;;;;;19.20;12.35;;;;;;;2.47;60.38;99893.72;4994413;28;20063;-88
2022/02/02 10:05:42;;;;;;;21.70;11.45;;;;;;;2.48;60.41;99888.38;4965445;28;20074;-87
2022/02/02 10:08:47;;;;;;;;;;;;;;;2.52;60.59;99884.72;4970199;28;20067;-87
2022/02/02 10:11:35;;;;;;;21.35;10.68;;;;;;;2.40;59.88;99890.44;4994263;28;19922;-90
2022/02/02 10:14:05;;;;;;;16.55;10.02;;;;;;;2.29;60.73;99882.94;4971512;28;20122;-91
2022/02/02 10:16:41;;;;;;;17.58;10.75;;;;;;;2.36;60.54;99878.31;4953387;28;20074;-91
2022/02/02 10:19:16;;;;;;;19.55;10.48;;;;;;;2.28;60.86;99875.09;4964121;28;20069;-91
2022/02/02 10:21:42;;;;;;;18.25;10.65;;;;;;;2.44;60.18;99878.88;4945652;28;20106;-93
2022/02/02 10:24:08;;;;;;;18.15;10.40;;;;;;;2.57;60.53;99895.09;4964049;28;20065;-92
2022/02/02 10:26:46;;;;;;;20.70;11.02;;;;;;;2.59;60.40;99883.53;4963551;28;20055;-95
2022/02/02 10:29:15;;;;;;;21.27;10.32;;;;;;;2.62;59.85;99875.50;4961703;28;20522;-90
2022/02/02 10:31:48;;;;;;;21.13;12.10;;;;;;;2.70;59.97;99887.56;4941161;28;20039;-94
2022/02/02 10:34:16;;;;;;;18.83;11.60;;;;;;;2.69;59.92;99886.69;4930349;28;20089;-93
2022/02/02 10:36:43;;;;;;;21.63;12.57;;;;;;;2.52;60.28;99890.00;4977728;28;20051;-92
2022/02/02 10:39:15;;;;;;;23.67;13.27;;;;;;;2.46;59.96;99879.69;4961456;28;20104;-92
2022/02/02 10:41:58;;;;;;;26.08;13.05;;;;;;;2.28;60.60;99894.41;4980245;28;20109;-93
2022/02/02 10:44:37;;;;;;;24.67;12.73;;;;;;;2.30;61.03;99900.50;4955939;28;20047;-94
2022/02/02 10:47:15;;;;;;;;;;;;;;;2.30;60.90;99897.00;4964271;28;20043;-93
2022/02/02 10:52:30;;;;;;;29.17;15.48;;;;;;;2.10;61.38;99908.28;4967532;28;20071;-91
2022/02/02 10:58:52;;;;;;;32.38;16.30;;;;;;;2.07;62.02;99909.28;4952814;28;20104;-92
2022/02/02 11:01:34;;;;;;;28.45;15.13;;;;;;;2.05;61.69;99905.81;4964547;28;20132;-92
2022/02/02 11:06:45;;;;;;;29.67;15.88;;;;;;;2.22;61.34;99892.03;4933562;28;20393;-90
2022/02/02 11:09:13;;;;;;;29.13;15.02;;;;;;;2.28;61.00;99896.19;4947331;28;20490;-93
2022/02/02 11:11:44;;;;;;;27.65;14.80;;;;;;;2.27;60.53;99905.03;4941705;28;20101;-94
2022/02/02 11:14:42;;;;;;;26.17;13.85;;;;;;;2.67;60.84;99907.91;4952528;28;20042;-87
2022/02/02 11:17:28;;;;;;;22.87;14.10;;;;;;;3.21;59.31;99891.69;4957349;28;20058;-86
2022/02/02 11:19:59;;;;;;;21.98;13.60;;;;;;;3.86;57.51;99899.44;4962467;28;20050;-88
2022/02/02 11:22:32;;;;;;;23.90;13.00;;;;;;;3.67;56.64;99909.09;4949893;28;20098;-87
2022/02/02 11:25:04;;;;;;;22.17;14.65;;;;;;;3.06;57.61;99907.22;4945512;28;20063;-88
2022/02/02 11:27:34;;;;;;;23.52;14.52;;;;;;;2.75;58.48;99904.09;4958482;28;20043;-88
2022/02/02 11:30:05;;;;;;;26.27;15.07;;;;;;;2.27;59.55;99910.31;4974552;28;20074;-88
2022/02/02 11:32:41;;;;;;;24.10;14.50;;;;;;;2.07;60.41;99908.38;4959564;28;20043;-88
2022/02/02 11:35:27;;;;;;;26.33;15.25;;;;;;;1.91;61.27;99908.06;4942791;28;20045;-88
2022/02/02 11:37:59;;;;;;;25.52;15.75;;;;;;;1.90;61.40;99907.22;4975008;28;20043;-89
2022/02/02 11:40:26;;;;;;;25.08;14.15;;;;;;;1.98;61.37;99920.13;4927752;28;20043;-89
2022/02/02 11:43:01;;;;;;;20.95;12.43;;;;;;;1.96;61.66;99927.25;4974189;28;20569;-88
2022/02/02 11:45:47;;;;;;;23.48;13.38;;;;;;;2.32;60.76;99924.19;4944590;28;20146;-87
2022/02/02 11:48:53;;;;;;;28.42;15.68;;;;;;;2.95;60.64;99930.56;4973919;28;20073;-89
2022/02/02 11:51:42;;;;;;;23.90;14.40;;;;;;;3.30;58.30;99920.34;4976774;28;20047;-89
2022/02/02 11:54:08;;;;;;;19.30;10.13;;;;;;;3.34;57.38;99916.66;4941483;28;20053;-87
2022/02/02 11:57:01;;;;;;;24.15;14.02;;;;;;;3.64;57.34;99931.25;4957790;28;20282;-85
2022/02/02 12:00:09;;;;;;;22.55;14.05;;;;;;;3.99;57.03;99935.97;4958720;28;20047;-89
2022/02/02 12:03:08;;;;;;;16.98;10.63;;;;;;;3.87;55.21;99938.22;4938932;29;20086;-89
2022/02/02 12:08:16;;;;;;;16.67;10.40;;;;;;;4.01;54.68;99945.53;4954872;29;20055;-86
2022/02/02 12:11:29;;;;;;;17.98;11.35;;;;;;;3.91;55.28;99952.13;4970312;28;20043;-86
2022/02/02 13:00:50;;;;;;;26.77;14.27;;;;;;;-0.35;67.45;100000.88;4960288;28;20053;-84
2022/02/02 13:03:17;;;;;;;25.15;13.98;;;;;;;-0.32;67.49;99995.56;4961228;28;20054;-84
2022/02/02 13:05:45;;;;;;;32.33;16.25;;;;;;;0.07;72.94;99987.53;4944566;28;20516;-88
2022/02/02 13:08:11;;;;;;;32.50;14.65;;;;;;;0.37;68.99;99990.22;4945538;28;20576;-83
2022/02/02 13:10:38;;;;;;;34.97;15.77;;;;;;;0.20;66.34;99988.06;4944944;28;20039;-84
2022/02/02 13:13:11;;;;;;;31.02;14.90;;;;;;;-0.01;66.03;99973.72;4945137;28;20151;-85
2022/02/02 13:15:44;;;;;;;33.33;14.90;;;;;;;-0.08;66.76;100004.56;4961292;28;20189;-83
2022/02/02 13:24:15;;;;;;;43.13;20.77;;;;;;;-0.33;67.44;99992.97;4954424;28;20054;-86
2022/02/02 13:27:18;;;;;;;40.30;21.38;;;;;;;-0.42;68.35;99999.31;4935515;28;20039;-89
2022/02/02 13:29:52;;;;;;;49.17;21.50;;;;;;;-0.58;68.26;99974.34;4942132;28;20125;-86
2022/02/02 13:37:54;;;;;;;39.83;20.35;;;;;;;-0.45;68.99;100003.75;4943372;28;20101;-83
2022/02/02 14:07:24;;;;;;;29.60;16.08;;;;;;;-0.83;69.76;100037.94;4918812;29;20056;-85
2022/02/02 14:32:12;;;;;;;32.78;14.30;;;;;;;-1.14;70.63;100050.81;4854008;29;20055;-84
2022/02/02 14:34:38;;;;;;;26.83;12.35;;;;;;;-1.18;70.79;100056.19;4854559;29;20101;-86
2022/02/02 14:37:15;;;;;;;26.08;13.68;;;;;;;-1.19;70.77;100062.34;4849430;29;20479;-84
2022/02/02 14:39:53;;;;;;;24.85;13.38;;;;;;;-1.22;70.85;100053.63;4898750;29;20059;-83
2022/02/02 14:42:25;;;;;;;24.48;14.30;;;;;;;-1.18;70.43;100050.94;4904316;29;20138;-82
2022/02/02 14:44:54;;;;;;;25.40;12.95;;;;;;;-1.26;70.63;100043.22;4911154;29;20044;-84
2022/02/02 14:47:31;;;;;;;30.08;15.48;;;;;;;-1.28;70.71;100040.66;4938913;28;20075;-83
2022/02/02 14:50:08;;;;;;;31.85;15.50;;;;;;;-1.38;70.33;100031.22;4918290;29;20059;-83
2022/02/02 14:52:53;;;;;;;30.17;14.77;;;;;;;-1.37;70.41;100048.69;4911151;29;20115;-84
2022/02/02 14:56:04;;;;;;;30.35;14.85;;;;;;;-1.41;70.38;100061.91;4903814;29;20569;-82
2022/02/02 15:28:16;;;;;;;27.27;12.90;;;;;;;-1.64;70.59;100075.44;4905646;29;20079;-83
2022/02/02 15:33:21;;;;;;;31.33;14.57;;;;;;;-1.74;70.36;100079.97;4904326;29;20079;-83
2022/02/02 15:36:03;;;;;;;34.33;16.35;;;;;;;-1.78;70.56;100084.41;4904776;29;20562;-83
2022/02/02 15:38:37;;;;;;;35.92;16.45;;;;;;;-1.75;69.96;100084.38;4919908;29;20046;-83
2022/02/02 15:41:11;;;;;;;31.25;15.65;;;;;;;-1.71;70.05;100093.91;4861822;29;20052;-83
2022/02/02 15:43:55;;;;;;;34.97;15.25;;;;;;;-1.74;70.57;100079.97;4883834;29;20060;-84
2022/02/02 16:05:41;;;;;;;33.80;15.43;;;;;;;-1.74;70.16;100088.69;4924440;29;20059;-85
2022/02/02 16:08:12;;;;;;;28.30;13.68;;;;;;;-1.77;70.53;100091.41;4892801;28;20114;-84
2022/02/02 16:10:47;;;;;;;30.80;12.65;;;;;;;-1.68;70.09;100084.25;4989531;28;20032;-83
2022/02/02 16:16:14;;;;;;;;;;;;;;;-1.54;70.31;100085.75;4902470;29;20074;-85
2022/02/02 16:18:48;;;;;;;20.88;11.23;;;;;;;-1.64;69.81;100085.94;4936117;29;19926;-85
2022/02/02 16:37:48;;;;;;;29.33;12.05;;;;;;;-1.78;69.09;100105.38;4906412;29;20123;-83
2022/02/02 16:40:20;;;;;;;29.60;13.57;;;;;;;-1.79;69.33;100106.28;4884006;29;20173;-83
2022/02/02 16:45:27;;;;;;;26.40;12.65;;;;;;;-1.91;69.07;100114.34;4894323;29;20039;-84
2022/02/02 16:47:56;;;;;;;25.80;13.35;;;;;;;-1.94;68.84;100109.16;4836101;29;20049;-84
2022/02/02 16:50:28;;;;;;;33.20;12.95;;;;;;;-1.97;68.93;100119.69;4879999;29;20558;-83
2022/02/02 16:53:06;;;;;;;29.50;12.90;;;;;;;-2.13;69.10;100105.13;4856651;29;20048;-83
2022/02/02 17:33:30;;;;;;;22.23;10.98;;;;;;;-2.22;68.63;100130.56;4877363;29;20056;-79
2022/02/02 17:36:13;;;;;;;30.40;12.13;;;;;;;-2.27;68.74;100136.75;4881002;29;20048;-81
2022/02/02 17:39:02;;;;;;;26.88;12.02;;;;;;;-2.34;68.03;100122.03;4853278;29;20061;-81
2022/02/02 18:23:04;;;;;;;23.63;10.57;;;;;;;-2.86;68.68;100165.47;4923240;29;20043;-82
2022/02/02 18:28:14;;;;;;;25.15;11.05;;;;;;;-2.88;68.44;100172.50;4925136;28;20417;-81
2022/02/02 18:31:07;;;;;;;23.30;10.80;;;;;;;-2.91;68.42;100169.91;4943563;28;20133;-81
2022/02/02 18:34:02;;;;;;;28.98;11.40;;;;;;;-2.82;68.60;100175.03;4945549;28;20069;-81
2022/02/02 18:46:53;;;;;;;22.10;10.10;;;;;;;-3.12;68.88;100165.81;4948795;28;20062;-82
2022/02/02 19:00:14;;;;;;;18.27;9.02;;;;;;;-2.98;68.16;100184.78;4952710;28;20067;-81
2022/02/02 19:05:36;;;;;;;30.42;10.30;;;;;;;-3.11;67.80;100161.44;4933524;28;20160;-83
2022/02/02 19:52:19;;;;;;;26.98;10.48;;;;;;;-3.22;68.91;100183.34;4961001;28;20053;-83
2022/02/02 20:08:08;;;;;;;37.30;14.65;;;;;;;-2.90;68.46;100181.22;4974787;28;20051;-80
2022/02/02 20:10:48;;;;;;;39.70;15.13;;;;;;;-2.91;68.09;100177.75;4966312;28;20085;-81
2022/02/02 20:13:16;;;;;;;38.85;15.32;;;;;;;-2.95;68.33;100178.66;4986058;28;20042;-82
2022/02/02 20:15:42;;;;;;;41.42;15.52;;;;;;;-2.97;68.58;100175.19;4983412;28;20089;-81
2022/02/02 20:18:09;;;;;;;40.55;14.68;;;;;;;-2.98;68.58;100176.09;4957393;28;20507;-79
2022/02/02 20:20:41;;;;;;;29.98;12.05;;;;;;;-2.98;68.39;100182.19;4957279;28;20074;-81
2022/02/02 20:23:08;;;;;;;22.52;10.95;;;;;;;-3.05;68.44;100177.03;4974461;28;20087;-80
2022/02/02 20:25:35;;;;;;;24.38;11.85;;;;;;;-3.14;69.08;100175.41;4939279;28;20410;-81
2022/02/02 20:28:06;;;;;;;33.65;12.73;;;;;;;-3.14;69.02;100171.94;4957484;28;20054;-80
2022/02/02 20:30:36;;;;;;;35.30;13.75;;;;;;;-3.07;69.18;100169.22;4942024;28;20038;-80
2022/02/02 20:33:02;;;;;;;33.30;13.52;;;;;;;-3.07;68.88;100164.00;4957295;28;20050;-80
2022/02/02 20:35:28;;;;;;;31.92;13.70;;;;;;;-3.12;69.10;100167.53;4941250;28;20523;-80
2022/02/02 20:37:55;;;;;;;37.97;15.45;;;;;;;-3.11;69.21;100166.66;4973387;28;20042;-80
2022/02/02 20:40:23;;;;;;;43.33;16.38;;;;;;;-3.08;69.26;100164.88;4957254;28;20514;-81
2022/02/02 21:04:25;;;;;;;55.45;21.52;;;;;;;-2.77;69.48;100173.22;4946104;28;20047;-81
2022/02/02 21:09:35;;;;;;;49.33;19.88;;;;;;;-2.62;69.22;100153.84;4972955;28;20496;-80
2022/02/02 21:14:45;;;;;;;29.27;12.77;;;;;;;-2.56;69.14;100147.63;4972939;28;20051;-80
2022/02/02 21:17:24;;;;;;;27.23;12.50;;;;;;;-2.67;69.25;100136.44;4958557;28;20050;-80
2022/02/02 21:22:17;;;;;;;20.15;9.65;;;;;;;-2.64;69.50;100141.66;4972847;28;20051;-80
2022/02/02 21:27:37;;;;;;;21.52;9.32;;;;;;;-2.76;70.33;100129.59;4976453;28;20046;-79
2022/02/02 21:30:07;;;;;;;16.73;8.68;;;;;;;-2.76;70.66;100127.84;4977665;28;20113;-80
2022/02/02 21:32:33;;;;;;;22.23;9.25;;;;;;;-2.77;70.57;100130.50;4960031;28;20059;-79
2022/02/02 21:35:05;;;;;;;21.90;8.80;;;;;;;-2.77;70.98;100133.97;4976107;28;20507;-79
2022/02/02 21:37:33;;;;;;;17.08;9.25;;;;;;;-2.77;70.83;100131.34;4976225;28;20047;-80
2022/02/02 21:40:16;;;;;;;21.50;8.82;;;;;;;-2.70;71.25;100137.38;4976449;28;20035;-80
2022/02/02 21:42:43;;;;;;;15.77;8.18;;;;;;;-2.63;71.16;100146.88;4976481;28;20133;-81
2022/02/02 21:45:09;;;;;;;19.52;8.90;;;;;;;-2.67;71.11;100145.19;4960225;28;20414;-81
2022/02/02 21:47:36;;;;;;;19.60;9.00;;;;;;;-2.72;71.38;100137.38;4960105;28;20042;-80
2022/02/02 21:50:06;;;;;;;19.33;8.52;;;;;;;-2.66;71.78;100139.06;4976226;28;20125;-81
2022/02/02 21:52:33;;;;;;;18.38;8.95;;;;;;;-2.54;71.69;100143.25;4945188;28;20047;-79
2022/02/02 21:54:59;;;;;;;18.17;8.73;;;;;;;-2.41;71.65;100154.41;4976019;28;20047;-78
2022/02/02 21:57:24;;;;;;;27.77;9.00;;;;;;;-2.34;71.05;100150.81;4944250;28;20077;-79
2022/02/02 21:59:51;;;;;;;20.33;9.48;;;;;;;-2.44;71.24;100144.88;4959965;28;20611;-79
2022/02/02 22:02:17;;;;;;;22.55;9.93;;;;;;;-2.45;71.86;100149.22;4960179;28;20149;-80
2022/02/02 22:04:43;;;;;;;28.25;11.82;;;;;;;-2.33;71.59;100153.44;4959846;28;20054;-80
2022/02/02 22:07:09;;;;;;;33.92;13.77;;;;;;;-2.31;71.56;100149.03;4975625;28;20189;-78
2022/02/02 22:09:35;;;;;;;48.70;18.42;;;;;;;-2.29;71.99;100155.13;4975886;28;20049;-81
2022/02/02 22:12:01;;;;;;;72.57;22.67;;;;;;;-2.27;71.57;100142.84;4975853;28;20055;-79
2022/02/02 22:14:28;;;;;;;59.35;20.58;;;;;;;-2.25;71.81;100146.34;4959430;28;20039;-79
2022/02/02 22:16:57;;;;;;;65.35;24.48;;;;;;;-2.26;71.44;100134.13;4959726;28;20053;-80
2022/02/02 22:19:23;;;;;;;57.30;22.08;;;;;;;-2.31;72.21;100148.16;4959926;28;20106;-80
2022/02/02 22:21:49;;;;;;;47.25;19.25;;;;;;;-2.27;72.32;100150.72;4959421;28;20053;-80
2022/02/02 22:24:16;;;;;;;45.10;18.77;;;;;;;-2.23;72.27;100147.16;4976551;28;20145;-80
2022/02/02 22:26:42;;;;;;;42.17;17.83;;;;;;;-2.23;72.08;100138.44;4975253;28;20097;-80
2022/02/02 22:29:09;;;;;;;34.80;17.13;;;;;;;-2.22;72.09;100140.16;4976240;28;20038;-80
2022/02/02 22:31:35;;;;;;;30.05;15.07;;;;;;;-2.24;72.20;100148.06;4976178;28;20070;-80
2022/02/02 22:34:01;;;;;;;28.75;13.82;;;;;;;-2.24;72.09;100136.72;4975049;28;20055;-79
2022/02/02 22:36:27;;;;;;;27.05;13.75;;;;;;;-2.13;72.24;100145.28;4974416;28;20052;-79
2022/02/02 22:38:53;;;;;;;26.58;10.77;;;;;;;-2.14;72.52;100143.56;4943759;28;20106;-80
2022/02/02 22:41:19;;;;;;;28.13;12.75;;;;;;;-2.17;72.65;100138.34;4959376;28;20129;-80